createdAt,value
2019-04-21T00:02:32.529Z,12.70
2019-04-21T00:05:20.045Z,12.60
2019-04-21T00:07:43.468Z,12.50
2019-04-21T00:10:18.832Z,12.40
2019-04-21T00:12:48.948Z,12.30
2019-04-21T00:15:09.734Z,12.40
2019-04-21T00:17:30.317Z,12.30
2019-04-21T00:20:12.732Z,12.30
2019-04-21T00:22:45.482Z,12.40
2019-04-21T00:25:18.153Z,12.40
2019-04-21T00:27:46.522Z,12.40
2019-04-21T00:30:26.922Z,12.40
2019-04-21T00:32:46.752Z,12.50
2019-04-21T00:35:11.744Z,12.50
2019-04-21T00:37:53.161Z,12.50
2019-04-21T00:40:30.361Z,12.40
2019-04-21T00:42:57.167Z,12.40
2019-04-21T00:45:26.564Z,12.40
2019-04-21T00:48:04.030Z,12.40
2019-04-21T00:50:41.566Z,12.30
2019-04-21T00:53:05.500Z,12.20
2019-04-21T00:55:38.557Z,12.20
2019-04-21T00:58:10.701Z,12.20
2019-04-21T01:00:41.146Z,12.20
2019-04-21T01:03:14.581Z,12.10
2019-04-21T01:05:48.363Z,12.10
2019-04-21T01:08:15.779Z,12.10
2019-04-21T01:10:35.925Z,12.10
2019-04-21T01:13:15.947Z,12.10
2019-04-21T01:15:49.096Z,12.10
2019-04-21T01:18:16.629Z,12.00
2019-04-21T01:20:23.024Z,12.00
2019-04-21T01:22:51.739Z,11.90
2019-04-21T01:25:30.263Z,11.90
2019-04-21T01:28:04.975Z,12.00
2019-04-21T01:30:41.489Z,12.00
2019-04-21T01:33:15.195Z,12.00
2019-04-21T01:35:43.932Z,12.00
2019-04-21T01:38:14.230Z,12.00
2019-04-21T01:40:47.688Z,12.00
2019-04-21T01:43:14.409Z,11.90
2019-04-21T01:45:44.780Z,11.90
2019-04-21T01:48:12.502Z,11.80
2019-04-21T01:50:40.939Z,11.80
2019-04-21T01:53:36.650Z,11.80
2019-04-21T01:56:29.277Z,11.80
2019-04-21T01:58:42.830Z,11.70
2019-04-21T02:01:27.441Z,11.80
2019-04-21T02:03:58.533Z,11.70
2019-04-21T02:06:29.174Z,11.70
2019-04-21T02:08:54.978Z,11.70
2019-04-21T02:11:30.031Z,11.70
2019-04-21T02:14:05.406Z,11.70
2019-04-21T02:16:32.725Z,11.70
2019-04-21T02:18:54.582Z,11.70
2019-04-21T02:21:25.913Z,11.70
2019-04-21T02:24:05.347Z,11.70
2019-04-21T02:26:36.136Z,11.70
2019-04-21T02:29:10.086Z,11.70
2019-04-21T02:31:50.501Z,11.70
2019-04-21T02:34:27.280Z,11.60
2019-04-21T02:49:22.261Z,11.50
2019-04-21T02:51:42.057Z,11.40
2019-04-21T02:59:23.262Z,11.20
2019-04-21T03:02:04.063Z,11.30
2019-04-21T03:07:13.079Z,11.20
2019-04-21T03:09:43.255Z,11.20
2019-04-21T03:17:14.228Z,11.20
2019-04-21T03:19:51.865Z,11.10
2019-04-21T03:25:23.502Z,11.00
2019-04-21T03:29:54.695Z,11.10
2019-04-21T03:35:15.002Z,11.10
2019-04-21T03:39:50.939Z,11.00
2019-04-21T03:44:48.304Z,10.90
2019-04-21T03:47:23.443Z,10.90
2019-04-21T03:49:55.476Z,10.90
2019-04-21T03:52:19.472Z,10.90
2019-04-21T03:55:50.996Z,10.80
2019-04-21T03:58:05.141Z,10.80
2019-04-21T04:00:44.870Z,10.80
2019-04-21T04:08:38.325Z,10.70
2019-04-21T04:11:04.654Z,10.60
2019-04-21T04:13:29.143Z,10.60
2019-04-21T04:16:05.771Z,10.60
2019-04-21T04:18:29.974Z,10.60
2019-04-21T04:20:54.935Z,10.40
2019-04-21T04:23:28.678Z,10.40
2019-04-21T04:25:51.547Z,10.50
2019-04-21T04:28:28.218Z,10.50
2019-04-21T04:30:56.005Z,10.40
2019-04-21T04:33:27.900Z,10.40
2019-04-21T04:36:01.405Z,10.40
2019-04-21T04:38:32.601Z,10.30
2019-04-21T04:43:44.557Z,10.20
2019-04-21T04:46:23.763Z,10.10
2019-04-21T04:48:51.672Z,10.00
2019-04-21T04:51:14.831Z,9.90
2019-04-21T04:53:46.938Z,9.90
2019-04-21T04:56:20.642Z,10.00
2019-04-21T05:01:24.638Z,10.10
2019-04-21T05:03:52.843Z,10.10
2019-04-21T05:14:02.781Z,10.10
2019-04-21T05:16:41.110Z,10.20
2019-04-21T05:19:04.258Z,10.20
2019-04-21T05:23:48.421Z,10.20
2019-04-21T05:26:09.973Z,10.20
2019-04-21T05:28:43.244Z,10.20
2019-04-21T05:31:44.574Z,10.30
2019-04-21T05:34:19.230Z,10.30
2019-04-21T05:36:52.329Z,10.30
2019-04-21T05:39:35.552Z,10.40
2019-04-21T05:42:00.263Z,10.40
2019-04-21T05:44:56.362Z,10.40
2019-04-21T05:47:22.139Z,10.50
2019-04-21T05:49:45.577Z,10.60
2019-04-21T05:52:08.138Z,10.70
2019-04-21T05:54:52.872Z,10.70
2019-04-21T05:57:14.577Z,10.80
2019-04-21T05:59:43.754Z,10.80
2019-04-21T06:07:33.405Z,11.10
2019-04-21T06:09:56.891Z,11.10
2019-04-21T06:12:25.256Z,11.10
2019-04-21T06:14:54.782Z,11.20
2019-04-21T06:17:30.466Z,11.20
2019-04-21T06:19:57.277Z,11.20
2019-04-21T06:22:22.169Z,11.30
2019-04-21T06:25:23.924Z,11.30
2019-04-21T06:27:29.924Z,11.40
2019-04-21T06:29:55.894Z,11.40
2019-04-21T06:33:31.620Z,11.40
2019-04-21T06:40:19.927Z,11.70
2019-04-21T06:42:26.685Z,11.80
2019-04-21T06:47:40.843Z,11.80
2019-04-21T06:50:00.468Z,11.80
2019-04-21T06:52:46.583Z,11.90
2019-04-21T06:55:10.233Z,11.90
2019-04-21T06:57:35.446Z,12.00
2019-04-21T07:00:03.223Z,12.00
2019-04-21T07:05:07.550Z,12.00
2019-04-21T07:08:05.203Z,12.00
2019-04-21T07:12:28.688Z,12.10
2019-04-21T07:15:03.289Z,12.30
2019-04-21T07:17:37.623Z,12.30
2019-04-21T08:16:41.271Z,14.30
2019-04-21T08:19:13.369Z,14.40
2019-04-21T08:21:40.486Z,14.40
2019-04-21T08:24:06.186Z,14.60
2019-04-21T08:26:48.380Z,14.70
2019-04-21T08:29:18.896Z,14.80
2019-04-21T08:31:49.993Z,14.90
2019-04-21T08:34:14.015Z,14.90
2019-04-21T08:36:43.239Z,15.00
2019-04-21T08:39:13.154Z,15.00
2019-04-21T08:41:45.265Z,15.00
2019-04-21T08:44:10.667Z,15.10
2019-04-21T08:46:50.481Z,15.10
2019-04-21T08:49:14.577Z,15.10
2019-04-21T08:51:50.707Z,15.20
2019-04-21T08:54:16.511Z,15.20
2019-04-21T08:56:46.679Z,15.30
2019-04-21T08:59:36.527Z,15.40
2019-04-21T09:02:10.197Z,15.40
2019-04-21T09:04:35.192Z,15.40
2019-04-21T09:07:26.939Z,15.60
2019-04-21T09:09:44.177Z,15.70
2019-04-21T09:12:04.325Z,15.80
2019-04-21T09:14:36.633Z,15.90
2019-04-21T09:17:03.309Z,15.90
2019-04-21T09:22:05.613Z,16.00
2019-04-21T09:24:41.262Z,16.00
2019-04-21T09:27:10.799Z,16.00
2019-04-21T09:29:31.221Z,16.10
2019-04-21T09:31:55.861Z,16.20
2019-04-21T09:34:29.825Z,16.20
2019-04-21T09:37:09.989Z,16.30
2019-04-21T09:39:26.247Z,16.30
2019-04-21T09:41:59.096Z,16.50
2019-04-21T09:44:30.903Z,16.60
2019-04-21T09:47:01.263Z,16.60
2019-04-21T09:49:31.111Z,16.70
2019-04-21T09:51:57.672Z,16.90
2019-04-21T09:54:29.856Z,16.90
2019-04-21T09:57:02.916Z,17.10
2019-04-21T09:59:32.104Z,17.20
2019-04-21T10:02:06.627Z,17.20
2019-04-21T10:04:28.894Z,17.30
2019-04-21T10:06:58.773Z,17.40
2019-04-21T10:09:28.876Z,17.40
2019-04-21T10:11:57.733Z,17.60
2019-04-21T10:14:26.894Z,17.80
2019-04-21T10:17:13.448Z,17.70
2019-04-21T10:19:42.193Z,17.60
2019-04-21T10:22:10.877Z,17.60
2019-04-21T10:24:40.519Z,17.50
2019-04-21T10:27:12.228Z,17.60
2019-04-21T10:29:42.996Z,17.60
2019-04-21T10:32:11.344Z,17.70
2019-04-21T10:34:41.231Z,17.80
2019-04-21T10:37:11.120Z,17.80
2019-04-21T10:39:40.070Z,17.90
2019-04-21T10:42:09.040Z,18.00
2019-04-21T10:44:38.873Z,18.00
2019-04-21T10:47:08.802Z,18.10
2019-04-21T10:49:37.575Z,18.20
2019-04-21T10:52:08.886Z,18.30
2019-04-21T10:55:01.815Z,18.30
2019-04-21T10:57:10.448Z,18.50
2019-04-21T10:59:40.418Z,18.70
2019-04-21T11:02:12.690Z,18.70
2019-04-21T11:04:42.308Z,19.00
2019-04-21T11:07:19.617Z,19.00
2019-04-21T11:09:47.303Z,19.00
2019-04-21T11:12:17.540Z,19.10
2019-04-21T11:14:47.220Z,19.20
2019-04-21T11:17:16.456Z,19.30
2019-04-21T11:19:46.533Z,19.20
2019-04-21T11:22:16.694Z,19.20
2019-04-21T11:24:45.456Z,19.40
2019-04-21T11:27:15.006Z,19.40
2019-04-21T11:29:43.794Z,19.40
2019-04-21T11:32:12.812Z,19.50
2019-04-21T11:34:41.547Z,19.50
2019-04-21T11:37:12.406Z,19.50
2019-04-21T11:39:50.160Z,19.50
2019-04-21T11:42:13.046Z,19.60
2019-04-21T11:44:41.851Z,19.60
2019-04-21T11:47:12.256Z,19.60
2019-04-21T11:49:41.188Z,19.70
2019-04-21T11:52:11.155Z,19.70
2019-04-21T11:54:40.640Z,19.80
2019-04-21T11:57:15.201Z,19.80
2019-04-21T11:59:39.897Z,19.90
2019-04-21T12:02:09.746Z,20.10
2019-04-21T12:04:39.304Z,20.20
2019-04-21T12:07:09.185Z,20.20
2019-04-21T12:09:37.925Z,20.40
2019-04-21T12:12:07.464Z,20.50
2019-04-21T12:14:36.432Z,20.50
2019-04-21T12:17:05.845Z,20.70
2019-04-21T12:19:34.889Z,20.70
2019-04-21T12:22:11.262Z,20.80
2019-04-21T12:24:36.829Z,20.70
2019-04-21T12:27:07.781Z,20.80
2019-04-21T12:29:37.802Z,20.80
2019-04-21T12:32:20.255Z,21.00
2019-04-21T12:34:51.741Z,21.00
2019-04-21T12:37:19.518Z,21.20
2019-04-21T12:39:48.605Z,21.30
2019-04-21T12:42:18.576Z,21.50
2019-04-21T12:44:47.574Z,21.60
2019-04-21T12:47:16.350Z,21.60
2019-04-21T12:49:45.601Z,21.60
2019-04-21T12:52:15.528Z,21.70
2019-04-21T12:54:45.779Z,21.80
2019-04-21T12:57:14.629Z,21.90
2019-04-21T12:59:44.580Z,21.90
2019-04-21T13:02:13.732Z,21.80
2019-04-21T13:04:43.677Z,21.80
2019-04-21T13:07:13.275Z,21.90
2019-04-21T13:09:42.140Z,22.00
2019-04-21T13:12:11.145Z,21.90
2019-04-21T13:14:39.999Z,22.00
2019-04-21T13:17:09.780Z,22.00
2019-04-21T13:19:38.978Z,22.00
2019-04-21T13:22:07.897Z,22.10
2019-04-21T13:24:37.830Z,22.20
2019-04-21T13:27:07.473Z,22.20
2019-04-21T13:29:38.468Z,22.30
2019-04-21T13:32:08.838Z,22.40
2019-04-21T13:34:37.979Z,22.50
2019-04-21T13:37:07.688Z,22.70
2019-04-21T13:40:06.580Z,23.00
2019-04-21T13:42:24.083Z,23.20
2019-04-21T13:44:46.614Z,23.40
2019-04-21T13:47:16.662Z,23.60
2019-04-21T13:49:45.880Z,23.80
2019-04-21T13:52:15.011Z,23.70
2019-04-21T13:54:45.400Z,23.70
2019-04-21T13:57:14.446Z,23.60
2019-04-21T13:59:44.382Z,23.60
2019-04-21T14:02:13.330Z,23.70
2019-04-21T14:04:43.202Z,23.90
2019-04-21T14:07:12.300Z,23.90
2019-04-21T14:09:52.625Z,24.00
2019-04-21T14:12:11.839Z,24.10
2019-04-21T14:14:41.920Z,24.40
2019-04-21T14:17:10.919Z,24.60
2019-04-21T14:19:39.761Z,24.50
2019-04-21T14:22:10.304Z,24.40
2019-04-21T14:24:38.783Z,24.50
2019-04-21T14:27:08.039Z,24.50
2019-04-21T14:29:37.693Z,24.60
2019-04-21T14:32:06.514Z,24.30
2019-04-21T14:34:35.599Z,24.40
2019-04-21T14:37:04.526Z,24.40
2019-04-21T14:39:34.367Z,24.30
2019-04-21T14:42:04.396Z,23.90
2019-04-21T14:44:33.252Z,23.70
2019-04-21T14:47:09.310Z,23.60
2019-04-21T14:49:42.629Z,23.50
2019-04-21T14:52:12.983Z,23.50
2019-04-21T14:54:44.579Z,23.50
2019-04-21T14:57:13.628Z,23.50
2019-04-21T14:59:42.809Z,23.60
2019-04-21T15:02:11.774Z,23.70
2019-04-21T15:04:41.640Z,23.90
2019-04-21T15:07:10.502Z,23.90
2019-04-21T15:09:41.049Z,23.70
2019-04-21T15:12:10.004Z,23.60
2019-04-21T15:14:40.289Z,23.40
2019-04-21T15:17:09.134Z,23.10
2019-04-21T15:19:38.457Z,22.80
2019-04-21T15:22:08.258Z,22.70
2019-04-21T15:24:38.285Z,22.60
2019-04-21T15:27:07.216Z,22.50
2019-04-21T15:29:36.155Z,22.40
2019-04-21T15:32:06.295Z,22.20
2019-04-21T15:34:36.064Z,22.10
2019-04-21T15:37:06.156Z,22.00
2019-04-21T15:39:34.937Z,22.00
2019-04-21T15:42:03.818Z,22.00
2019-04-21T15:44:32.777Z,22.00
2019-04-21T15:47:02.069Z,22.10
2019-04-21T15:49:40.502Z,22.10
2019-04-21T15:52:04.140Z,22.20
2019-04-21T15:54:34.307Z,22.30
2019-04-21T15:57:04.943Z,22.40
2019-04-21T15:59:38.357Z,22.60
2019-04-21T16:02:32.765Z,23.10
2019-04-21T16:05:01.482Z,23.80
2019-04-21T16:07:30.419Z,24.30
2019-04-21T16:09:59.813Z,24.60
2019-04-21T16:12:29.706Z,25.00
2019-04-21T16:14:58.792Z,24.80
2019-04-21T16:17:27.625Z,24.50
2019-04-21T16:19:56.315Z,24.10
2019-04-21T16:22:26.362Z,24.00
2019-04-21T16:24:55.098Z,23.70
2019-04-21T16:27:23.822Z,23.50
2019-04-21T16:29:53.785Z,23.30
2019-04-21T16:32:23.982Z,23.10
2019-04-21T16:34:59.027Z,23.00
2019-04-21T16:37:23.554Z,22.80
2019-04-21T16:39:53.593Z,22.60
2019-04-21T16:42:22.782Z,22.50
2019-04-21T16:44:52.664Z,22.30
2019-04-21T16:47:21.803Z,22.30
2019-04-21T16:49:51.932Z,22.20
2019-04-21T16:52:23.885Z,22.00
2019-04-21T16:54:55.796Z,22.00
2019-04-21T16:57:30.034Z,21.80
2019-04-21T17:00:00.533Z,21.80
2019-04-21T17:02:30.426Z,21.60
2019-04-21T17:05:00.437Z,21.50
2019-04-21T17:07:30.290Z,21.40
2019-04-21T17:09:59.158Z,21.30
2019-04-21T17:12:30.349Z,21.20
2019-04-21T17:15:16.869Z,21.20
2019-04-21T17:17:50.089Z,21.00
2019-04-21T17:22:29.243Z,20.90
2019-04-21T17:24:58.269Z,20.70
2019-04-21T17:27:27.205Z,20.60
2019-04-21T17:29:56.765Z,20.50
2019-04-21T17:32:32.115Z,20.50
2019-04-21T17:34:56.288Z,20.40
2019-04-21T17:37:26.794Z,20.30
2019-04-21T17:39:56.739Z,20.20
2019-04-21T17:42:34.432Z,20.10
2019-04-21T17:44:57.347Z,20.00
2019-04-21T17:47:42.688Z,19.80
2019-04-21T17:50:17.953Z,19.70
2019-04-21T17:53:03.446Z,19.60
2019-04-21T17:55:33.613Z,19.50
2019-04-21T17:58:19.295Z,19.40
2019-04-21T18:03:32.868Z,19.10
2019-04-21T18:05:50.538Z,19.00
2019-04-21T18:08:23.405Z,18.90
2019-04-21T18:10:48.005Z,18.80
2019-04-21T18:13:11.601Z,18.80
2019-04-21T18:15:52.403Z,18.70
2019-04-21T18:18:05.822Z,18.60
2019-04-21T18:20:37.747Z,18.60
2019-04-21T18:23:18.629Z,18.50
2019-04-21T18:25:50.550Z,18.50
2019-04-21T18:28:12.539Z,18.40
2019-04-21T18:30:48.742Z,18.40
2019-04-21T18:33:26.902Z,18.30
2019-04-21T18:36:00.622Z,18.10
2019-04-21T18:38:57.063Z,18.00
2019-04-21T18:41:07.728Z,17.90
2019-04-21T18:44:10.451Z,17.80
2019-04-21T18:46:46.156Z,17.70
2019-04-21T18:48:59.013Z,17.60
2019-04-21T18:51:34.655Z,17.60
2019-04-21T18:54:22.686Z,17.70
2019-04-21T18:56:29.748Z,17.70
2019-04-21T18:58:58.505Z,17.80
2019-04-21T19:01:31.094Z,17.90
2019-04-21T19:03:58.321Z,18.00
2019-04-21T19:06:45.930Z,18.00
2019-04-21T19:09:14.377Z,17.90
2019-04-21T19:11:48.016Z,17.70
2019-04-21T19:14:36.340Z,17.70
2019-04-21T19:17:12.451Z,17.60
2019-04-21T19:19:41.307Z,17.50
2019-04-21T19:21:55.519Z,17.40
2019-04-21T19:24:29.117Z,17.20
2019-04-21T19:26:58.809Z,17.10
2019-04-21T19:29:29.593Z,17.00
2019-04-21T19:31:54.796Z,16.80
2019-04-21T19:34:16.221Z,16.70
2019-04-21T19:36:46.738Z,16.70
2019-04-21T19:39:16.156Z,16.60
2019-04-21T19:41:56.173Z,16.60
2019-04-21T19:44:32.347Z,16.50
2019-04-21T19:46:58.371Z,16.40
2019-04-21T19:49:35.106Z,16.40
2019-04-21T19:51:53.306Z,16.30
2019-04-21T19:54:24.233Z,16.20
2019-04-21T19:56:44.811Z,16.10
2019-04-21T19:59:19.994Z,16.00
2019-04-21T20:01:46.730Z,15.90
2019-04-21T20:04:14.698Z,15.80
2019-04-21T20:06:53.295Z,15.90
2019-04-21T20:09:32.119Z,15.80
2019-04-21T20:11:58.138Z,15.80
2019-04-21T20:17:00.602Z,15.60
2019-04-21T20:19:17.493Z,15.50
2019-04-21T20:21:47.109Z,15.40
2019-04-21T20:24:21.542Z,15.40
2019-04-21T20:26:58.597Z,15.20
2019-04-21T20:29:37.442Z,15.20
2019-04-21T20:32:14.762Z,15.10
2019-04-21T20:34:42.540Z,15.00
2019-04-21T20:37:09.597Z,15.00
2019-04-21T20:39:22.835Z,14.90
2019-04-21T20:42:03.821Z,14.90
2019-04-21T20:44:37.339Z,14.80
2019-04-21T20:47:03.822Z,14.70
2019-04-21T20:49:34.465Z,14.80
2019-04-21T20:52:11.863Z,14.70
2019-04-21T20:54:44.017Z,14.70
2019-04-21T20:57:12.621Z,14.70
2019-04-21T20:59:32.326Z,14.70
2019-04-21T21:02:10.143Z,14.70
2019-04-21T21:04:34.935Z,14.70
2019-04-21T21:07:16.662Z,14.70
2019-04-21T21:09:41.467Z,14.70
2019-04-21T21:12:22.336Z,14.60
2019-04-21T21:14:40.078Z,14.60
2019-04-21T21:17:26.677Z,14.50
2019-04-21T21:19:49.011Z,14.50
2019-04-21T21:22:08.277Z,14.50
2019-04-21T21:24:47.398Z,14.50
2019-04-21T21:27:16.005Z,14.50
2019-04-21T21:29:45.698Z,14.60
2019-04-21T21:32:24.044Z,14.50
2019-04-21T21:34:49.601Z,14.50
2019-04-21T21:37:26.790Z,14.40
2019-04-21T21:39:52.095Z,14.30
2019-04-21T21:42:02.773Z,14.30
2019-04-21T21:44:32.533Z,14.30
2019-04-21T21:47:17.437Z,14.30
2019-04-21T21:49:42.498Z,14.30
2019-04-21T21:52:09.314Z,14.30
2019-04-21T21:54:32.030Z,14.20
2019-04-21T21:57:00.831Z,14.20
2019-04-21T21:59:31.816Z,14.20
2019-04-21T22:02:01.703Z,14.10
2019-04-21T22:04:33.817Z,14.20
2019-04-21T22:07:09.296Z,14.10
2019-04-21T22:09:32.374Z,14.20
2019-04-21T22:12:06.290Z,14.20
2019-04-21T22:14:40.459Z,14.10
2019-04-21T22:17:16.186Z,14.20
2019-04-21T22:20:00.110Z,14.20
2019-04-21T22:22:21.045Z,14.30
2019-04-21T22:24:46.846Z,14.30
2019-04-21T22:27:05.241Z,14.30
2019-04-21T22:29:41.347Z,14.20
2019-04-21T22:32:11.375Z,14.20
2019-04-21T22:34:44.050Z,14.20
2019-04-21T22:37:24.465Z,14.20
2019-04-21T22:39:53.060Z,14.10
2019-04-21T22:42:15.803Z,14.10
2019-04-21T22:44:38.578Z,14.10
2019-04-21T22:47:15.295Z,14.10
2019-04-21T22:49:38.758Z,14.00
2019-04-21T22:52:12.399Z,13.90
2019-04-21T22:54:41.260Z,13.80
2019-04-21T22:57:14.782Z,13.70
2019-04-21T22:59:38.741Z,13.60
2019-04-21T23:02:15.300Z,13.50
2019-04-21T23:04:43.506Z,13.50
2019-04-21T23:07:13.558Z,13.40
2019-04-21T23:09:38.878Z,13.30
2019-04-21T23:12:08.096Z,13.30
2019-04-21T23:14:46.202Z,13.20
2019-04-21T23:17:28.163Z,13.10
2019-04-21T23:19:59.913Z,13.10
2019-04-21T23:22:31.263Z,13.00
2019-04-21T23:24:57.322Z,12.90
2019-04-21T23:27:23.135Z,12.80
2019-04-21T23:30:04.699Z,12.80
2019-04-21T23:32:23.848Z,12.80
2019-04-21T23:34:42.443Z,12.80
2019-04-21T23:37:16.818Z,12.80
2019-04-21T23:39:41.543Z,12.70
2019-04-21T23:42:11.248Z,12.60
2019-04-21T23:44:45.879Z,12.60
2019-04-21T23:47:13.439Z,12.50
2019-04-21T23:49:50.667Z,12.50
2019-04-21T23:52:14.447Z,12.50
2019-04-21T23:54:41.529Z,12.50
2019-04-21T23:57:16.818Z,12.40
2019-04-21T23:59:45.290Z,12.40
